sensor_id;sensor_type;location;lat;lon;timestamp;P1;durP1;ratioP1;P2;durP2;ratioP2
79438;SDS011;68889;48.232;10.110;2023-04-12T00:01:22;5.00;;;2.10;;
79438;SDS011;68889;48.232;10.110;2023-04-12T00:03:48;5.45;;;1.73;;
79438;SDS011;68889;48.232;10.110;2023-04-12T00:06:14;5.97;;;1.65;;
79438;SDS011;68889;48.232;10.110;2023-04-12T00:11:10;3.22;;;1.40;;
79438;SDS011;68889;48.232;10.110;2023-04-12T00:13:36;2.78;;;1.58;;
79438;SDS011;68889;48.232;10.110;2023-04-12T00:16:02;4.38;;;1.80;;
79438;SDS011;68889;48.232;10.110;2023-04-12T00:18:27;4.75;;;1.50;;
79438;SDS011;68889;48.232;10.110;2023-04-12T00:20:56;3.53;;;2.10;;
79438;SDS011;68889;48.232;10.110;2023-04-12T00:23:21;4.47;;;1.73;;
79438;SDS011;68889;48.232;10.110;2023-04-12T00:25:47;5.43;;;1.90;;
79438;SDS011;68889;48.232;10.110;2023-04-12T00:28:13;5.20;;;1.90;;
79438;SDS011;68889;48.232;10.110;2023-04-12T00:37:56;3.67;;;1.65;;
79438;SDS011;68889;48.232;10.110;2023-04-12T00:40:22;6.32;;;1.70;;
79438;SDS011;68889;48.232;10.110;2023-04-12T00:42:47;3.08;;;1.73;;
79438;SDS011;68889;48.232;10.110;2023-04-12T00:45:13;3.30;;;1.48;;
79438;SDS011;68889;48.232;10.110;2023-04-12T00:47:39;5.53;;;1.77;;
79438;SDS011;68889;48.232;10.110;2023-04-12T00:50:07;2.92;;;1.50;;
79438;SDS011;68889;48.232;10.110;2023-04-12T00:52:33;3.75;;;1.63;;
79438;SDS011;68889;48.232;10.110;2023-04-12T00:55:03;6.25;;;1.70;;
79438;SDS011;68889;48.232;10.110;2023-04-12T00:57:31;5.38;;;2.28;;
79438;SDS011;68889;48.232;10.110;2023-04-12T01:00:00;5.30;;;2.00;;
79438;SDS011;68889;48.232;10.110;2023-04-12T01:02:28;4.68;;;1.73;;
79438;SDS011;68889;48.232;10.110;2023-04-12T01:04:54;3.83;;;1.65;;
79438;SDS011;68889;48.232;10.110;2023-04-12T01:07:24;4.72;;;1.70;;
79438;SDS011;68889;48.232;10.110;2023-04-12T01:10:08;5.32;;;1.90;;
79438;SDS011;68889;48.232;10.110;2023-04-12T01:15:20;4.80;;;1.60;;
79438;SDS011;68889;48.232;10.110;2023-04-12T01:18:03;4.80;;;2.20;;
79438;SDS011;68889;48.232;10.110;2023-04-12T01:20:38;4.30;;;1.70;;
79438;SDS011;68889;48.232;10.110;2023-04-12T01:28:22;4.55;;;1.85;;
79438;SDS011;68889;48.232;10.110;2023-04-12T01:30:53;4.30;;;1.92;;
79438;SDS011;68889;48.232;10.110;2023-04-12T01:33:20;5.20;;;2.15;;
79438;SDS011;68889;48.232;10.110;2023-04-12T01:35:48;4.35;;;1.80;;
79438;SDS011;68889;48.232;10.110;2023-04-12T01:38:15;4.50;;;1.88;;
79438;SDS011;68889;48.232;10.110;2023-04-12T01:40:41;6.25;;;1.90;;
79438;SDS011;68889;48.232;10.110;2023-04-12T01:43:08;3.42;;;2.20;;
79438;SDS011;68889;48.232;10.110;2023-04-12T01:45:35;5.68;;;2.70;;
79438;SDS011;68889;48.232;10.110;2023-04-12T01:48:01;7.00;;;2.17;;
79438;SDS011;68889;48.232;10.110;2023-04-12T01:50:35;4.05;;;2.22;;
79438;SDS011;68889;48.232;10.110;2023-04-12T01:53:21;4.53;;;2.20;;
79438;SDS011;68889;48.232;10.110;2023-04-12T01:58:21;4.57;;;2.72;;
79438;SDS011;68889;48.232;10.110;2023-04-12T02:00:49;6.97;;;2.88;;
79438;SDS011;68889;48.232;10.110;2023-04-12T02:03:17;6.00;;;2.75;;
79438;SDS011;68889;48.232;10.110;2023-04-12T02:05:45;5.82;;;3.00;;
79438;SDS011;68889;48.232;10.110;2023-04-12T02:08:11;3.72;;;2.65;;
79438;SDS011;68889;48.232;10.110;2023-04-12T02:10:37;6.03;;;3.20;;
79438;SDS011;68889;48.232;10.110;2023-04-12T02:13:04;4.13;;;2.60;;
79438;SDS011;68889;48.232;10.110;2023-04-12T02:15:30;5.78;;;2.83;;
79438;SDS011;68889;48.232;10.110;2023-04-12T02:17:56;4.35;;;2.45;;
79438;SDS011;68889;48.232;10.110;2023-04-12T02:22:49;4.32;;;2.05;;
79438;SDS011;68889;48.232;10.110;2023-04-12T02:25:15;7.32;;;2.33;;
79438;SDS011;68889;48.232;10.110;2023-04-12T02:27:43;5.32;;;2.78;;
79438;SDS011;68889;48.232;10.110;2023-04-12T02:30:10;5.00;;;2.70;;
79438;SDS011;68889;48.232;10.110;2023-04-12T02:32:36;4.10;;;2.05;;
79438;SDS011;68889;48.232;10.110;2023-04-12T02:35:08;5.80;;;2.65;;
79438;SDS011;68889;48.232;10.110;2023-04-12T02:37:38;5.75;;;2.72;;
79438;SDS011;68889;48.232;10.110;2023-04-12T02:40:04;4.78;;;2.35;;
79438;SDS011;68889;48.232;10.110;2023-04-12T02:42:31;4.47;;;2.60;;
79438;SDS011;68889;48.232;10.110;2023-04-12T02:44:57;4.32;;;2.60;;
79438;SDS011;68889;48.232;10.110;2023-04-12T02:47:22;6.18;;;2.70;;
79438;SDS011;68889;48.232;10.110;2023-04-12T02:49:53;5.47;;;2.67;;
79438;SDS011;68889;48.232;10.110;2023-04-12T02:52:19;4.95;;;2.88;;
79438;SDS011;68889;48.232;10.110;2023-04-12T02:54:45;8.65;;;3.22;;
79438;SDS011;68889;48.232;10.110;2023-04-12T02:57:10;6.40;;;3.22;;
79438;SDS011;68889;48.232;10.110;2023-04-12T02:59:36;5.05;;;2.78;;
79438;SDS011;68889;48.232;10.110;2023-04-12T03:02:02;6.35;;;3.28;;
79438;SDS011;68889;48.232;10.110;2023-04-12T03:04:28;7.38;;;3.13;;
79438;SDS011;68889;48.232;10.110;2023-04-12T03:06:57;5.55;;;3.03;;
79438;SDS011;68889;48.232;10.110;2023-04-12T03:09:23;5.35;;;2.92;;
79438;SDS011;68889;48.232;10.110;2023-04-12T03:11:49;6.10;;;3.17;;
79438;SDS011;68889;48.232;10.110;2023-04-12T03:14:15;4.80;;;2.80;;
79438;SDS011;68889;48.232;10.110;2023-04-12T03:16:41;5.90;;;3.22;;
79438;SDS011;68889;48.232;10.110;2023-04-12T03:19:07;4.78;;;2.78;;
79438;SDS011;68889;48.232;10.110;2023-04-12T03:21:32;6.65;;;3.05;;
79438;SDS011;68889;48.232;10.110;2023-04-12T03:23:58;5.45;;;2.60;;
79438;SDS011;68889;48.232;10.110;2023-04-12T03:26:24;5.55;;;2.63;;
79438;SDS011;68889;48.232;10.110;2023-04-12T03:28:51;5.68;;;2.78;;
79438;SDS011;68889;48.232;10.110;2023-04-12T03:31:20;4.78;;;3.17;;
79438;SDS011;68889;48.232;10.110;2023-04-12T03:33:45;6.10;;;3.15;;
79438;SDS011;68889;48.232;10.110;2023-04-12T03:36:11;4.78;;;2.92;;
79438;SDS011;68889;48.232;10.110;2023-04-12T03:38:37;6.20;;;3.05;;
79438;SDS011;68889;48.232;10.110;2023-04-12T03:41:02;5.03;;;2.97;;
79438;SDS011;68889;48.232;10.110;2023-04-12T03:43:28;4.85;;;2.05;;
79438;SDS011;68889;48.232;10.110;2023-04-12T03:45:59;6.15;;;2.50;;
79438;SDS011;68889;48.232;10.110;2023-04-12T03:48:29;5.25;;;2.72;;
79438;SDS011;68889;48.232;10.110;2023-04-12T03:50:54;5.20;;;2.70;;
79438;SDS011;68889;48.232;10.110;2023-04-12T03:53:23;4.55;;;2.33;;
79438;SDS011;68889;48.232;10.110;2023-04-12T03:55:51;5.72;;;2.28;;
79438;SDS011;68889;48.232;10.110;2023-04-12T03:58:18;4.82;;;2.58;;
79438;SDS011;68889;48.232;10.110;2023-04-12T04:00:44;4.10;;;2.20;;
79438;SDS011;68889;48.232;10.110;2023-04-12T04:03:10;4.63;;;2.33;;
79438;SDS011;68889;48.232;10.110;2023-04-12T04:05:36;4.38;;;2.17;;
79438;SDS011;68889;48.232;10.110;2023-04-12T04:08:02;6.00;;;2.70;;
79438;SDS011;68889;48.232;10.110;2023-04-12T04:10:30;4.70;;;2.33;;
79438;SDS011;68889;48.232;10.110;2023-04-12T04:12:56;5.03;;;2.20;;
79438;SDS011;68889;48.232;10.110;2023-04-12T04:15:22;5.43;;;2.38;;
79438;SDS011;68889;48.232;10.110;2023-04-12T04:17:49;5.70;;;2.38;;
79438;SDS011;68889;48.232;10.110;2023-04-12T04:20:15;4.03;;;1.70;;
79438;SDS011;68889;48.232;10.110;2023-04-12T04:22:42;3.53;;;2.03;;
79438;SDS011;68889;48.232;10.110;2023-04-12T04:25:09;4.95;;;2.08;;
79438;SDS011;68889;48.232;10.110;2023-04-12T04:27:38;5.25;;;2.40;;
79438;SDS011;68889;48.232;10.110;2023-04-12T04:30:04;5.13;;;2.20;;
79438;SDS011;68889;48.232;10.110;2023-04-12T04:32:31;3.40;;;1.85;;
79438;SDS011;68889;48.232;10.110;2023-04-12T04:34:57;3.30;;;1.48;;
79438;SDS011;68889;48.232;10.110;2023-04-12T04:37:24;4.72;;;2.25;;
79438;SDS011;68889;48.232;10.110;2023-04-12T04:39:50;3.15;;;1.58;;
79438;SDS011;68889;48.232;10.110;2023-04-12T04:42:15;4.43;;;1.85;;
79438;SDS011;68889;48.232;10.110;2023-04-12T04:44:41;3.97;;;1.60;;
79438;SDS011;68889;48.232;10.110;2023-04-12T04:47:07;3.50;;;1.52;;
79438;SDS011;68889;48.232;10.110;2023-04-12T04:49:33;3.92;;;1.40;;
79438;SDS011;68889;48.232;10.110;2023-04-12T04:51:59;3.00;;;1.40;;
79438;SDS011;68889;48.232;10.110;2023-04-12T04:54:25;3.30;;;1.45;;
79438;SDS011;68889;48.232;10.110;2023-04-12T04:56:50;2.60;;;1.35;;
79438;SDS011;68889;48.232;10.110;2023-04-12T04:59:16;4.18;;;1.30;;
79438;SDS011;68889;48.232;10.110;2023-04-12T05:01:41;3.83;;;1.30;;
79438;SDS011;68889;48.232;10.110;2023-04-12T05:04:07;3.40;;;1.50;;
79438;SDS011;68889;48.232;10.110;2023-04-12T05:06:32;2.47;;;1.33;;
79438;SDS011;68889;48.232;10.110;2023-04-12T05:08:58;3.47;;;1.65;;
79438;SDS011;68889;48.232;10.110;2023-04-12T05:11:26;3.10;;;1.38;;
79438;SDS011;68889;48.232;10.110;2023-04-12T05:13:52;4.78;;;1.30;;
79438;SDS011;68889;48.232;10.110;2023-04-12T05:16:18;3.33;;;1.40;;
79438;SDS011;68889;48.232;10.110;2023-04-12T05:18:43;4.20;;;1.25;;
79438;SDS011;68889;48.232;10.110;2023-04-12T05:21:09;2.47;;;1.15;;
79438;SDS011;68889;48.232;10.110;2023-04-12T05:23:35;5.78;;;1.45;;
79438;SDS011;68889;48.232;10.110;2023-04-12T05:26:01;2.47;;;1.30;;
79438;SDS011;68889;48.232;10.110;2023-04-12T05:28:27;3.08;;;1.35;;
79438;SDS011;68889;48.232;10.110;2023-04-12T05:30:53;3.63;;;1.33;;
79438;SDS011;68889;48.232;10.110;2023-04-12T05:33:18;3.92;;;1.30;;
79438;SDS011;68889;48.232;10.110;2023-04-12T05:35:44;4.72;;;1.58;;
79438;SDS011;68889;48.232;10.110;2023-04-12T05:38:10;1.98;;;1.05;;
79438;SDS011;68889;48.232;10.110;2023-04-12T05:40:35;3.88;;;1.65;;
79438;SDS011;68889;48.232;10.110;2023-04-12T05:43:01;3.72;;;1.80;;
79438;SDS011;68889;48.232;10.110;2023-04-12T05:45:27;4.35;;;1.25;;
79438;SDS011;68889;48.232;10.110;2023-04-12T05:47:53;4.30;;;1.33;;
79438;SDS011;68889;48.232;10.110;2023-04-12T05:50:19;4.03;;;1.45;;
79438;SDS011;68889;48.232;10.110;2023-04-12T05:52:45;3.10;;;1.42;;
79438;SDS011;68889;48.232;10.110;2023-04-12T05:55:12;3.85;;;1.20;;
79438;SDS011;68889;48.232;10.110;2023-04-12T05:57:38;2.95;;;1.50;;
79438;SDS011;68889;48.232;10.110;2023-04-12T06:00:04;3.20;;;1.40;;
79438;SDS011;68889;48.232;10.110;2023-04-12T06:02:37;3.25;;;1.40;;
79438;SDS011;68889;48.232;10.110;2023-04-12T06:05:03;2.42;;;1.17;;
79438;SDS011;68889;48.232;10.110;2023-04-12T06:07:29;4.25;;;1.40;;
79438;SDS011;68889;48.232;10.110;2023-04-12T06:09:54;3.28;;;1.45;;
79438;SDS011;68889;48.232;10.110;2023-04-12T06:12:20;3.13;;;1.38;;
79438;SDS011;68889;48.232;10.110;2023-04-12T06:14:45;3.20;;;1.48;;
79438;SDS011;68889;48.232;10.110;2023-04-12T06:17:11;2.75;;;1.63;;
79438;SDS011;68889;48.232;10.110;2023-04-12T06:19:37;3.97;;;1.40;;
79438;SDS011;68889;48.232;10.110;2023-04-12T06:22:02;3.30;;;1.40;;
79438;SDS011;68889;48.232;10.110;2023-04-12T06:24:28;3.50;;;1.70;;
79438;SDS011;68889;48.232;10.110;2023-04-12T06:26:53;4.75;;;1.88;;
79438;SDS011;68889;48.232;10.110;2023-04-12T06:29:19;4.50;;;1.25;;
79438;SDS011;68889;48.232;10.110;2023-04-12T06:31:45;2.83;;;1.17;;
79438;SDS011;68889;48.232;10.110;2023-04-12T06:34:11;3.75;;;1.40;;
79438;SDS011;68889;48.232;10.110;2023-04-12T06:36:36;4.32;;;1.58;;
79438;SDS011;68889;48.232;10.110;2023-04-12T06:39:04;4.47;;;1.60;;
79438;SDS011;68889;48.232;10.110;2023-04-12T06:41:30;4.22;;;1.48;;
79438;SDS011;68889;48.232;10.110;2023-04-12T06:43:56;3.05;;;1.48;;
79438;SDS011;68889;48.232;10.110;2023-04-12T06:46:25;4.00;;;1.02;;
79438;SDS011;68889;48.232;10.110;2023-04-12T06:48:51;3.83;;;1.30;;
79438;SDS011;68889;48.232;10.110;2023-04-12T06:51:17;2.88;;;1.33;;
79438;SDS011;68889;48.232;10.110;2023-04-12T06:53:42;2.88;;;1.80;;
79438;SDS011;68889;48.232;10.110;2023-04-12T06:56:08;3.42;;;1.45;;
79438;SDS011;68889;48.232;10.110;2023-04-12T06:58:34;2.95;;;1.67;;
79438;SDS011;68889;48.232;10.110;2023-04-12T07:01:06;3.60;;;1.77;;
79438;SDS011;68889;48.232;10.110;2023-04-12T07:03:32;4.40;;;1.50;;
79438;SDS011;68889;48.232;10.110;2023-04-12T07:05:59;4.03;;;1.35;;
79438;SDS011;68889;48.232;10.110;2023-04-12T07:08:26;3.17;;;1.35;;
79438;SDS011;68889;48.232;10.110;2023-04-12T07:10:53;2.33;;;1.17;;
79438;SDS011;68889;48.232;10.110;2023-04-12T07:13:19;3.08;;;1.17;;
79438;SDS011;68889;48.232;10.110;2023-04-12T07:15:44;2.35;;;1.20;;
79438;SDS011;68889;48.232;10.110;2023-04-12T07:18:10;1.98;;;1.10;;
79438;SDS011;68889;48.232;10.110;2023-04-12T07:20:36;2.97;;;1.40;;
79438;SDS011;68889;48.232;10.110;2023-04-12T07:23:02;1.80;;;1.17;;
79438;SDS011;68889;48.232;10.110;2023-04-12T07:25:27;3.85;;;1.42;;
79438;SDS011;68889;48.232;10.110;2023-04-12T07:27:53;2.40;;;1.27;;
79438;SDS011;68889;48.232;10.110;2023-04-12T07:30:18;2.47;;;1.10;;
79438;SDS011;68889;48.232;10.110;2023-04-12T07:32:44;3.40;;;1.30;;
79438;SDS011;68889;48.232;10.110;2023-04-12T07:35:09;4.47;;;1.45;;
79438;SDS011;68889;48.232;10.110;2023-04-12T07:37:35;2.90;;;1.40;;
79438;SDS011;68889;48.232;10.110;2023-04-12T07:40:01;4.18;;;1.65;;
79438;SDS011;68889;48.232;10.110;2023-04-12T07:42:27;1.92;;;1.15;;
79438;SDS011;68889;48.232;10.110;2023-04-12T07:44:53;4.35;;;1.70;;
79438;SDS011;68889;48.232;10.110;2023-04-12T07:47:18;3.15;;;1.73;;
79438;SDS011;68889;48.232;10.110;2023-04-12T07:49:44;2.72;;;1.55;;
79438;SDS011;68889;48.232;10.110;2023-04-12T07:52:09;3.25;;;1.70;;
79438;SDS011;68889;48.232;10.110;2023-04-12T07:54:35;3.53;;;1.50;;
79438;SDS011;68889;48.232;10.110;2023-04-12T07:57:02;4.90;;;1.80;;
79438;SDS011;68889;48.232;10.110;2023-04-12T07:59:28;3.22;;;1.50;;
79438;SDS011;68889;48.232;10.110;2023-04-12T08:01:54;2.78;;;1.35;;
79438;SDS011;68889;48.232;10.110;2023-04-12T08:04:19;3.88;;;1.70;;
79438;SDS011;68889;48.232;10.110;2023-04-12T08:06:45;2.80;;;1.55;;
79438;SDS011;68889;48.232;10.110;2023-04-12T08:09:11;4.05;;;1.27;;
79438;SDS011;68889;48.232;10.110;2023-04-12T08:11:37;3.25;;;1.58;;
79438;SDS011;68889;48.232;10.110;2023-04-12T08:14:02;3.20;;;1.70;;
79438;SDS011;68889;48.232;10.110;2023-04-12T08:16:28;3.78;;;1.77;;
79438;SDS011;68889;48.232;10.110;2023-04-12T08:18:53;3.45;;;1.70;;
79438;SDS011;68889;48.232;10.110;2023-04-12T08:21:20;2.80;;;1.60;;
79438;SDS011;68889;48.232;10.110;2023-04-12T08:23:47;2.90;;;1.33;;
79438;SDS011;68889;48.232;10.110;2023-04-12T08:26:14;3.28;;;1.70;;
79438;SDS011;68889;48.232;10.110;2023-04-12T08:28:40;2.80;;;1.70;;
79438;SDS011;68889;48.232;10.110;2023-04-12T08:31:06;3.28;;;1.63;;
79438;SDS011;68889;48.232;10.110;2023-04-12T08:33:32;3.28;;;1.50;;
79438;SDS011;68889;48.232;10.110;2023-04-12T08:35:58;3.33;;;1.73;;
79438;SDS011;68889;48.232;10.110;2023-04-12T08:38:23;3.35;;;1.40;;
79438;SDS011;68889;48.232;10.110;2023-04-12T08:40:50;2.42;;;1.45;;
79438;SDS011;68889;48.232;10.110;2023-04-12T08:43:15;2.45;;;1.60;;
79438;SDS011;68889;48.232;10.110;2023-04-12T08:45:43;2.72;;;1.60;;
79438;SDS011;68889;48.232;10.110;2023-04-12T08:48:08;2.60;;;1.40;;
79438;SDS011;68889;48.232;10.110;2023-04-12T08:50:35;3.00;;;1.63;;
79438;SDS011;68889;48.232;10.110;2023-04-12T08:53:00;3.60;;;1.58;;
79438;SDS011;68889;48.232;10.110;2023-04-12T08:55:27;2.30;;;1.45;;
79438;SDS011;68889;48.232;10.110;2023-04-12T08:57:53;2.85;;;1.52;;
79438;SDS011;68889;48.232;10.110;2023-04-12T09:00:20;4.07;;;1.60;;
79438;SDS011;68889;48.232;10.110;2023-04-12T09:02:46;2.80;;;1.40;;
79438;SDS011;68889;48.232;10.110;2023-04-12T09:05:13;2.78;;;1.58;;
79438;SDS011;68889;48.232;10.110;2023-04-12T09:07:39;3.03;;;1.63;;
79438;SDS011;68889;48.232;10.110;2023-04-12T09:10:05;3.38;;;1.33;;
79438;SDS011;68889;48.232;10.110;2023-04-12T09:12:31;2.22;;;1.63;;
79438;SDS011;68889;48.232;10.110;2023-04-12T09:15:18;5.57;;;1.52;;
79438;SDS011;68889;48.232;10.110;2023-04-12T09:17:43;2.00;;;1.42;;
79438;SDS011;68889;48.232;10.110;2023-04-12T09:22:41;2.80;;;1.70;;
79438;SDS011;68889;48.232;10.110;2023-04-12T09:25:10;2.83;;;1.88;;
79438;SDS011;68889;48.232;10.110;2023-04-12T09:27:46;2.58;;;1.50;;
79438;SDS011;68889;48.232;10.110;2023-04-12T09:30:13;2.90;;;1.40;;
79438;SDS011;68889;48.232;10.110;2023-04-12T09:32:40;2.60;;;1.40;;
79438;SDS011;68889;48.232;10.110;2023-04-12T09:35:06;3.30;;;1.65;;
79438;SDS011;68889;48.232;10.110;2023-04-12T09:37:32;4.18;;;1.77;;
79438;SDS011;68889;48.232;10.110;2023-04-12T09:40:04;2.58;;;1.63;;
79438;SDS011;68889;48.232;10.110;2023-04-12T09:42:32;2.50;;;1.30;;
79438;SDS011;68889;48.232;10.110;2023-04-12T09:44:59;2.72;;;1.60;;
79438;SDS011;68889;48.232;10.110;2023-04-12T09:47:36;2.40;;;1.40;;
79438;SDS011;68889;48.232;10.110;2023-04-12T09:50:03;2.63;;;1.50;;
79438;SDS011;68889;48.232;10.110;2023-04-12T09:52:34;2.88;;;1.80;;
79438;SDS011;68889;48.232;10.110;2023-04-12T09:55:07;2.78;;;1.70;;
79438;SDS011;68889;48.232;10.110;2023-04-12T09:57:36;2.42;;;1.35;;
79438;SDS011;68889;48.232;10.110;2023-04-12T10:00:04;2.40;;;1.50;;
79438;SDS011;68889;48.232;10.110;2023-04-12T10:02:43;2.40;;;1.52;;
79438;SDS011;68889;48.232;10.110;2023-04-12T10:05:16;1.92;;;1.20;;
79438;SDS011;68889;48.232;10.110;2023-04-12T10:07:47;2.90;;;1.20;;
79438;SDS011;68889;48.232;10.110;2023-04-12T10:10:13;1.92;;;1.17;;
79438;SDS011;68889;48.232;10.110;2023-04-12T10:12:41;2.53;;;1.35;;
79438;SDS011;68889;48.232;10.110;2023-04-12T10:15:08;2.08;;;1.35;;
79438;SDS011;68889;48.232;10.110;2023-04-12T10:17:50;2.08;;;1.33;;
79438;SDS011;68889;48.232;10.110;2023-04-12T10:20:17;2.85;;;1.23;;
79438;SDS011;68889;48.232;10.110;2023-04-12T10:22:47;2.72;;;1.45;;
79438;SDS011;68889;48.232;10.110;2023-04-12T10:25:22;2.05;;;1.20;;
79438;SDS011;68889;48.232;10.110;2023-04-12T10:27:49;1.52;;;0.93;;
79438;SDS011;68889;48.232;10.110;2023-04-12T10:30:19;2.53;;;1.20;;
79438;SDS011;68889;48.232;10.110;2023-04-12T10:32:45;2.70;;;1.10;;
79438;SDS011;68889;48.232;10.110;2023-04-12T10:35:11;2.63;;;1.20;;
79438;SDS011;68889;48.232;10.110;2023-04-12T10:40:21;2.33;;;1.02;;
79438;SDS011;68889;48.232;10.110;2023-04-12T10:42:47;2.53;;;1.08;;
79438;SDS011;68889;48.232;10.110;2023-04-12T10:50:20;1.65;;;1.00;;
79438;SDS011;68889;48.232;10.110;2023-04-12T10:53:19;2.10;;;1.02;;
79438;SDS011;68889;48.232;10.110;2023-04-12T10:55:45;2.38;;;1.20;;
79438;SDS011;68889;48.232;10.110;2023-04-12T11:01:12;2.88;;;0.90;;
79438;SDS011;68889;48.232;10.110;2023-04-12T11:04:03;2.38;;;0.98;;
79438;SDS011;68889;48.232;10.110;2023-04-12T11:06:53;2.15;;;1.20;;
79438;SDS011;68889;48.232;10.110;2023-04-12T11:19:31;3.72;;;1.60;;
79438;SDS011;68889;48.232;10.110;2023-04-12T11:21:58;1.92;;;1.15;;
79438;SDS011;68889;48.232;10.110;2023-04-12T11:24:25;3.60;;;1.50;;
79438;SDS011;68889;48.232;10.110;2023-04-12T11:26:51;2.28;;;1.50;;
79438;SDS011;68889;48.232;10.110;2023-04-12T11:29:26;3.00;;;1.50;;
79438;SDS011;68889;48.232;10.110;2023-04-12T11:31:51;2.10;;;1.20;;
79438;SDS011;68889;48.232;10.110;2023-04-12T11:34:19;3.10;;;1.30;;
79438;SDS011;68889;48.232;10.110;2023-04-12T11:36:44;2.53;;;1.33;;
79438;SDS011;68889;48.232;10.110;2023-04-12T11:39:12;3.80;;;1.75;;
79438;SDS011;68889;48.232;10.110;2023-04-12T11:41:47;4.88;;;1.60;;
79438;SDS011;68889;48.232;10.110;2023-04-12T11:44:13;2.47;;;1.58;;
79438;SDS011;68889;48.232;10.110;2023-04-12T11:46:43;4.15;;;1.70;;
79438;SDS011;68889;48.232;10.110;2023-04-12T11:49:09;2.60;;;1.52;;
79438;SDS011;68889;48.232;10.110;2023-04-12T11:51:34;2.35;;;1.33;;
79438;SDS011;68889;48.232;10.110;2023-04-12T11:54:00;4.40;;;1.45;;
79438;SDS011;68889;48.232;10.110;2023-04-12T11:56:28;3.10;;;1.42;;
79438;SDS011;68889;48.232;10.110;2023-04-12T11:58:55;2.33;;;1.25;;
79438;SDS011;68889;48.232;10.110;2023-04-12T12:01:21;3.70;;;1.58;;
79438;SDS011;68889;48.232;10.110;2023-04-12T12:03:47;3.00;;;1.17;;
79438;SDS011;68889;48.232;10.110;2023-04-12T12:06:13;2.97;;;1.40;;
79438;SDS011;68889;48.232;10.110;2023-04-12T12:08:39;3.42;;;1.45;;
79438;SDS011;68889;48.232;10.110;2023-04-12T12:11:05;2.30;;;1.15;;
79438;SDS011;68889;48.232;10.110;2023-04-12T12:16:28;2.67;;;1.15;;
79438;SDS011;68889;48.232;10.110;2023-04-12T12:18:54;3.25;;;1.50;;
79438;SDS011;68889;48.232;10.110;2023-04-12T12:21:21;2.08;;;1.50;;
79438;SDS011;68889;48.232;10.110;2023-04-12T12:23:47;3.00;;;1.38;;
79438;SDS011;68889;48.232;10.110;2023-04-12T12:26:19;1.83;;;1.20;;
79438;SDS011;68889;48.232;10.110;2023-04-12T12:28:53;3.60;;;1.30;;
79438;SDS011;68889;48.232;10.110;2023-04-12T12:31:21;2.10;;;1.10;;
79438;SDS011;68889;48.232;10.110;2023-04-12T12:33:48;1.60;;;0.80;;
79438;SDS011;68889;48.232;10.110;2023-04-12T12:36:18;3.10;;;1.27;;
79438;SDS011;68889;48.232;10.110;2023-04-12T12:38:46;1.77;;;1.00;;
79438;SDS011;68889;48.232;10.110;2023-04-12T12:41:14;2.63;;;0.80;;
79438;SDS011;68889;48.232;10.110;2023-04-12T12:43:46;2.10;;;1.00;;
79438;SDS011;68889;48.232;10.110;2023-04-12T12:46:13;2.13;;;0.90;;
79438;SDS011;68889;48.232;10.110;2023-04-12T12:48:39;2.42;;;0.80;;
79438;SDS011;68889;48.232;10.110;2023-04-12T12:53:32;1.42;;;0.63;;
79438;SDS011;68889;48.232;10.110;2023-04-12T12:55:58;2.53;;;0.63;;
79438;SDS011;68889;48.232;10.110;2023-04-12T12:58:23;2.05;;;0.60;;
79438;SDS011;68889;48.232;10.110;2023-04-12T13:00:49;2.05;;;0.70;;
79438;SDS011;68889;48.232;10.110;2023-04-12T13:03:15;1.52;;;0.70;;
79438;SDS011;68889;48.232;10.110;2023-04-12T13:05:40;1.45;;;0.60;;
79438;SDS011;68889;48.232;10.110;2023-04-12T13:08:06;1.05;;;0.50;;
79438;SDS011;68889;48.232;10.110;2023-04-12T13:10:31;2.35;;;1.00;;
79438;SDS011;68889;48.232;10.110;2023-04-12T13:12:57;2.42;;;0.60;;
79438;SDS011;68889;48.232;10.110;2023-04-12T13:15:22;0.98;;;0.70;;
79438;SDS011;68889;48.232;10.110;2023-04-12T13:17:49;1.67;;;0.82;;
79438;SDS011;68889;48.232;10.110;2023-04-12T13:20:17;2.15;;;0.60;;
79438;SDS011;68889;48.232;10.110;2023-04-12T13:22:43;1.55;;;0.50;;
79438;SDS011;68889;48.232;10.110;2023-04-12T13:25:09;1.45;;;0.80;;
79438;SDS011;68889;48.232;10.110;2023-04-12T13:27:35;3.60;;;0.93;;
79438;SDS011;68889;48.232;10.110;2023-04-12T13:30:02;1.38;;;0.68;;
79438;SDS011;68889;48.232;10.110;2023-04-12T13:34:53;1.13;;;0.50;;
79438;SDS011;68889;48.232;10.110;2023-04-12T13:37:19;1.52;;;0.60;;
79438;SDS011;68889;48.232;10.110;2023-04-12T13:39:45;1.38;;;0.55;;
79438;SDS011;68889;48.232;10.110;2023-04-12T13:42:10;1.33;;;0.50;;
79438;SDS011;68889;48.232;10.110;2023-04-12T13:44:36;1.30;;;0.45;;
79438;SDS011;68889;48.232;10.110;2023-04-12T13:47:02;2.15;;;0.52;;
79438;SDS011;68889;48.232;10.110;2023-04-12T13:49:27;1.20;;;0.50;;
79438;SDS011;68889;48.232;10.110;2023-04-12T13:51:54;1.60;;;0.60;;
79438;SDS011;68889;48.232;10.110;2023-04-12T13:54:20;1.92;;;0.60;;
79438;SDS011;68889;48.232;10.110;2023-04-12T13:56:46;1.08;;;0.52;;
79438;SDS011;68889;48.232;10.110;2023-04-12T13:59:12;1.50;;;0.55;;
79438;SDS011;68889;48.232;10.110;2023-04-12T14:01:38;2.03;;;0.60;;
79438;SDS011;68889;48.232;10.110;2023-04-12T14:04:04;1.02;;;0.47;;
79438;SDS011;68889;48.232;10.110;2023-04-12T14:08:56;1.30;;;0.57;;
79438;SDS011;68889;48.232;10.110;2023-04-12T14:11:21;1.33;;;0.40;;
79438;SDS011;68889;48.232;10.110;2023-04-12T14:13:48;1.73;;;0.57;;
79438;SDS011;68889;48.232;10.110;2023-04-12T14:16:14;0.70;;;0.40;;
79438;SDS011;68889;48.232;10.110;2023-04-12T14:18:40;2.08;;;0.60;;
79438;SDS011;68889;48.232;10.110;2023-04-12T14:21:05;1.35;;;0.50;;
79438;SDS011;68889;48.232;10.110;2023-04-12T14:23:33;2.97;;;0.60;;
79438;SDS011;68889;48.232;10.110;2023-04-12T14:25:58;1.70;;;0.52;;
79438;SDS011;68889;48.232;10.110;2023-04-12T14:28:24;2.75;;;0.60;;
79438;SDS011;68889;48.232;10.110;2023-04-12T14:30:54;1.88;;;0.60;;
79438;SDS011;68889;48.232;10.110;2023-04-12T14:33:21;2.50;;;0.70;;
79438;SDS011;68889;48.232;10.110;2023-04-12T14:35:46;2.20;;;0.70;;
79438;SDS011;68889;48.232;10.110;2023-04-12T14:38:12;1.20;;;0.40;;
79438;SDS011;68889;48.232;10.110;2023-04-12T14:40:38;0.95;;;0.47;;
79438;SDS011;68889;48.232;10.110;2023-04-12T14:43:04;2.00;;;0.77;;
79438;SDS011;68889;48.232;10.110;2023-04-12T14:45:29;1.20;;;0.40;;
79438;SDS011;68889;48.232;10.110;2023-04-12T14:47:55;1.77;;;0.60;;
79438;SDS011;68889;48.232;10.110;2023-04-12T14:50:20;1.20;;;0.50;;
79438;SDS011;68889;48.232;10.110;2023-04-12T14:52:46;0.88;;;0.50;;
79438;SDS011;68889;48.232;10.110;2023-04-12T14:55:12;1.42;;;0.70;;
79438;SDS011;68889;48.232;10.110;2023-04-12T14:57:38;0.90;;;0.60;;
79438;SDS011;68889;48.232;10.110;2023-04-12T15:00:07;2.88;;;0.70;;
79438;SDS011;68889;48.232;10.110;2023-04-12T15:02:42;1.05;;;0.50;;
79438;SDS011;68889;48.232;10.110;2023-04-12T15:05:09;1.67;;;0.50;;
79438;SDS011;68889;48.232;10.110;2023-04-12T15:07:35;1.25;;;0.60;;
79438;SDS011;68889;48.232;10.110;2023-04-12T15:10:02;2.80;;;0.60;;
79438;SDS011;68889;48.232;10.110;2023-04-12T15:12:28;1.05;;;0.60;;
79438;SDS011;68889;48.232;10.110;2023-04-12T15:14:57;2.63;;;0.93;;
79438;SDS011;68889;48.232;10.110;2023-04-12T15:17:24;2.45;;;0.60;;
79438;SDS011;68889;48.232;10.110;2023-04-12T15:42:34;1.27;;;0.60;;
79438;SDS011;68889;48.232;10.110;2023-04-12T15:44:59;1.75;;;0.50;;
79438;SDS011;68889;48.232;10.110;2023-04-12T15:47:26;2.25;;;0.63;;
79438;SDS011;68889;48.232;10.110;2023-04-12T15:49:51;2.75;;;0.90;;
79438;SDS011;68889;48.232;10.110;2023-04-12T15:52:18;1.00;;;0.52;;